Time,TemperatureF,DewpointF,PressureIn,WindDirection,WindDirectionDegrees,WindSpeedMPH,WindSpeedGustMPH,Humidity,HourlyPrecipIn,Conditions,Clouds,dailyrainin,SoftwareType,DateUTC
2013-04-23 00:00:00,17.0,-99.9,-100.00,NE,47,14.0,23.0,-999,-99.99,,,-99.99,,2013-04-23 06:00:00,
2013-04-23 00:33:00,17.0,-99.9,-100.00,NE,47,14.0,23.0,-999,-99.99,,,-99.99,,2013-04-23 06:33:00,
2013-04-23 00:42:00,17.0,-99.9,-100.00,NE,47,14.0,23.0,-999,-99.99,,,-99.99,,2013-04-23 06:42:00,
2013-04-23 00:52:00,17.0,-99.9,-100.00,NE,47,14.0,23.0,-999,-99.99,,,-99.99,,2013-04-23 06:52:00,
2013-04-23 01:00:00,16.0,-99.9,-100.00,ENE,58,19.0,19.0,-999,-99.99,,,-99.99,,2013-04-23 07:00:00,
2013-04-23 01:32:00,16.0,-99.9,-100.00,ENE,58,19.0,19.0,-999,-99.99,,,-99.99,,2013-04-23 07:32:00,
2013-04-23 01:42:00,16.0,-99.9,-100.00,ENE,58,19.0,19.0,-999,-99.99,,,-99.99,,2013-04-23 07:42:00,
2013-04-23 01:52:00,16.0,-99.9,-100.00,ENE,58,19.0,19.0,-999,-99.99,,,-99.99,,2013-04-23 07:52:00,
2013-04-23 02:00:00,15.0,-99.9,-100.00,ENE,71,17.0,19.0,-999,-99.99,,,-99.99,,2013-04-23 08:00:00,
2013-04-23 02:32:00,15.0,-99.9,-100.00,ENE,71,17.0,19.0,-999,-99.99,,,-99.99,,2013-04-23 08:32:00,
2013-04-23 02:42:00,15.0,-99.9,-100.00,ENE,71,17.0,19.0,-999,-99.99,,,-99.99,,2013-04-23 08:42:00,
2013-04-23 02:52:00,15.0,-99.9,-100.00,ENE,71,17.0,19.0,-999,-99.99,,,-99.99,,2013-04-23 08:52:00,
2013-04-23 03:00:00,16.0,-99.9,-100.00,NE,54,14.0,15.0,-999,-99.99,,,-99.99,,2013-04-23 09:00:00,
2013-04-23 03:33:00,16.0,-99.9,-100.00,NE,54,14.0,15.0,-999,-99.99,,,-99.99,,2013-04-23 09:33:00,
2013-04-23 03:43:00,16.0,-99.9,-100.00,NE,54,14.0,15.0,-999,-99.99,,,-99.99,,2013-04-23 09:43:00,
2013-04-23 03:53:00,16.0,-99.9,-100.00,NE,54,14.0,15.0,-999,-99.99,,,-99.99,,2013-04-23 09:53:00,
2013-04-23 04:00:00,15.0,-99.9,-100.00,ENE,75,9.0,12.0,-999,-99.99,,,-99.99,,2013-04-23 10:00:00,
2013-04-23 04:33:00,15.0,-99.9,-100.00,ENE,75,9.0,12.0,-999,-99.99,,,-99.99,,2013-04-23 10:33:00,
2013-04-23 04:43:00,15.0,-99.9,-100.00,ENE,75,9.0,12.0,-999,-99.99,,,-99.99,,2013-04-23 10:43:00,
2013-04-23 04:53:00,15.0,-99.9,-100.00,ENE,75,9.0,12.0,-999,-99.99,,,-99.99,,2013-04-23 10:53:00,
2013-04-23 05:00:00,13.0,-99.9,-100.00,East,85,6.0,8.0,-999,-99.99,,,-99.99,,2013-04-23 11:00:00,
2013-04-23 05:33:00,13.0,-99.9,-100.00,East,85,6.0,8.0,-999,-99.99,,,-99.99,,2013-04-23 11:33:00,
2013-04-23 05:43:00,13.0,-99.9,-100.00,East,85,6.0,8.0,-999,-99.99,,,-99.99,,2013-04-23 11:43:00,
2013-04-23 05:53:00,13.0,-99.9,-100.00,East,85,6.0,8.0,-999,-99.99,,,-99.99,,2013-04-23 11:53:00,
2013-04-23 07:00:00,14.0,-99.9,-100.00,ESE,116,3.0,4.0,-999,-99.99,,,-99.99,,2013-04-23 13:00:00,
2013-04-23 07:32:00,14.0,-99.9,-100.00,ESE,116,3.0,4.0,-999,-99.99,,,-99.99,,2013-04-23 13:32:00,
2013-04-23 07:42:00,14.0,-99.9,-100.00,ESE,116,3.0,4.0,-999,-99.99,,,-99.99,,2013-04-23 13:42:00,
2013-04-23 07:52:00,14.0,-99.9,-100.00,ESE,116,3.0,4.0,-999,-99.99,,,-99.99,,2013-04-23 13:52:00,
2013-04-23 08:00:00,15.0,-99.9,-100.00,SSW,203,4.0,4.0,-999,-99.99,,,-99.99,,2013-04-23 14:00:00,
2013-04-23 08:32:00,15.0,-99.9,-100.00,SSW,203,4.0,4.0,-999,-99.99,,,-99.99,,2013-04-23 14:32:00,
2013-04-23 08:42:00,15.0,-99.9,-100.00,SSW,203,4.0,4.0,-999,-99.99,,,-99.99,,2013-04-23 14:42:00,
2013-04-23 08:52:00,15.0,-99.9,-100.00,SSW,203,4.0,4.0,-999,-99.99,,,-99.99,,2013-04-23 14:52:00,
2013-04-23 09:00:00,16.0,-99.9,-100.00,WSW,240,9.0,9.0,-999,-99.99,,,-99.99,,2013-04-23 15:00:00,
2013-04-23 09:32:00,16.0,-99.9,-100.00,WSW,240,9.0,9.0,-999,-99.99,,,-99.99,,2013-04-23 15:32:00,
2013-04-23 09:43:00,16.0,-99.9,-100.00,WSW,240,9.0,9.0,-999,-99.99,,,-99.99,,2013-04-23 15:43:00,
2013-04-23 09:53:00,16.0,-99.9,-100.00,WSW,240,9.0,9.0,-999,-99.99,,,-99.99,,2013-04-23 15:53:00,
2013-04-23 10:00:00,19.0,-99.9,-100.00,WSW,247,7.0,8.0,-999,-99.99,,,-99.99,,2013-04-23 16:00:00,
2013-04-23 10:34:00,19.0,-99.9,-100.00,WSW,247,7.0,8.0,-999,-99.99,,,-99.99,,2013-04-23 16:34:00,
2013-04-23 10:43:00,19.0,-99.9,-100.00,WSW,247,7.0,8.0,-999,-99.99,,,-99.99,,2013-04-23 16:43:00,
2013-04-23 10:53:00,19.0,-99.9,-100.00,WSW,247,7.0,8.0,-999,-99.99,,,-99.99,,2013-04-23 16:53:00,
2013-04-23 11:00:00,21.0,-99.9,-100.00,South,185,3.0,10.0,-999,-99.99,,,-99.99,,2013-04-23 17:00:00,
2013-04-23 11:33:00,21.0,-99.9,-100.00,South,185,3.0,10.0,-999,-99.99,,,-99.99,,2013-04-23 17:33:00,
2013-04-23 11:43:00,21.0,-99.9,-100.00,South,185,3.0,10.0,-999,-99.99,,,-99.99,,2013-04-23 17:43:00,
2013-04-23 11:53:00,21.0,-99.9,-100.00,South,185,3.0,10.0,-999,-99.99,,,-99.99,,2013-04-23 17:53:00,
2013-04-23 12:00:00,21.0,-99.9,-100.00,SW,220,7.0,11.0,-999,-99.99,,,-99.99,,2013-04-23 18:00:00,
2013-04-23 12:32:00,21.0,-99.9,-100.00,SW,220,7.0,11.0,-999,-99.99,,,-99.99,,2013-04-23 18:32:00,
2013-04-23 12:42:00,21.0,-99.9,-100.00,SW,220,7.0,11.0,-999,-99.99,,,-99.99,,2013-04-23 18:42:00,
2013-04-23 12:52:00,21.0,-99.9,-100.00,SW,220,7.0,11.0,-999,-99.99,,,-99.99,,2013-04-23 18:52:00,
2013-04-23 13:00:00,24.0,-99.9,-100.00,SW,222,7.0,11.0,-999,-99.99,,,-99.99,,2013-04-23 19:00:00,
2013-04-23 13:33:00,24.0,-99.9,-100.00,SW,222,7.0,11.0,-999,-99.99,,,-99.99,,2013-04-23 19:33:00,
2013-04-23 13:42:00,24.0,-99.9,-100.00,SW,222,7.0,11.0,-999,-99.99,,,-99.99,,2013-04-23 19:42:00,
2013-04-23 13:52:00,24.0,-99.9,-100.00,SW,222,7.0,11.0,-999,-99.99,,,-99.99,,2013-04-23 19:52:00,
2013-04-23 14:00:00,29.0,-99.9,-100.00,WNW,285,17.0,18.0,-999,-99.99,,,-99.99,,2013-04-23 20:00:00,
2013-04-23 14:32:00,29.0,-99.9,-100.00,WNW,285,17.0,18.0,-999,-99.99,,,-99.99,,2013-04-23 20:32:00,
2013-04-23 14:42:00,29.0,-99.9,-100.00,WNW,285,17.0,18.0,-999,-99.99,,,-99.99,,2013-04-23 20:42:00,
2013-04-23 14:52:00,29.0,-99.9,-100.00,WNW,285,17.0,18.0,-999,-99.99,,,-99.99,,2013-04-23 20:52:00,
2013-04-23 15:00:00,33.0,-99.9,-100.00,WNW,300,21.0,28.0,-999,-99.99,,,-99.99,,2013-04-23 21:00:00,
2013-04-23 15:33:00,33.0,-99.9,-100.00,WNW,300,21.0,28.0,-999,-99.99,,,-99.99,,2013-04-23 21:33:00,
2013-04-23 15:43:00,33.0,-99.9,-100.00,WNW,300,21.0,28.0,-999,-99.99,,,-99.99,,2013-04-23 21:43:00,
2013-04-23 15:53:00,33.0,-99.9,-100.00,WNW,300,21.0,28.0,-999,-99.99,,,-99.99,,2013-04-23 21:53:00,
2013-04-23 16:00:00,31.0,-99.9,-100.00,WNW,291,23.0,25.0,-999,-99.99,,,-99.99,,2013-04-23 22:00:00,
2013-04-23 16:33:00,31.0,-99.9,-100.00,WNW,291,23.0,25.0,-999,-99.99,,,-99.99,,2013-04-23 22:33:00,
2013-04-23 16:42:00,31.0,-99.9,-100.00,WNW,291,23.0,25.0,-999,-99.99,,,-99.99,,2013-04-23 22:42:00,
2013-04-23 16:53:00,31.0,-99.9,-100.00,WNW,291,23.0,25.0,-999,-99.99,,,-99.99,,2013-04-23 22:53:00,
2013-04-23 17:00:00,32.0,-99.9,-100.00,WNW,297,23.0,26.0,-999,-99.99,,,-99.99,,2013-04-23 23:00:00,
2013-04-23 17:32:00,32.0,-99.9,-100.00,WNW,297,23.0,26.0,-999,-99.99,,,-99.99,,2013-04-23 23:32:00,
2013-04-23 17:42:00,32.0,-99.9,-100.00,WNW,297,23.0,26.0,-999,-99.99,,,-99.99,,2013-04-23 23:42:00,
2013-04-23 17:52:00,32.0,-99.9,-100.00,WNW,297,23.0,26.0,-999,-99.99,,,-99.99,,2013-04-23 23:52:00,
2013-04-23 19:00:00,32.0,-99.9,-100.00,West,272,17.0,21.0,-999,-99.99,,,-99.99,,2013-04-24 01:00:00,
2013-04-23 19:32:00,32.0,-99.9,-100.00,West,272,17.0,21.0,-999,-99.99,,,-99.99,,2013-04-24 01:32:00,
2013-04-23 19:43:00,32.0,-99.9,-100.00,West,272,17.0,21.0,-999,-99.99,,,-99.99,,2013-04-24 01:43:00,
2013-04-23 19:52:00,32.0,-99.9,-100.00,West,272,17.0,21.0,-999,-99.99,,,-99.99,,2013-04-24 01:52:00,
2013-04-23 20:00:00,26.0,-99.9,-100.00,SW,218,6.0,8.0,-999,-99.99,,,-99.99,,2013-04-24 02:00:00,
2013-04-23 20:42:00,26.0,-99.9,-100.00,SW,218,6.0,8.0,-999,-99.99,,,-99.99,,2013-04-24 02:42:00,
2013-04-23 21:00:00,27.0,-99.9,-100.00,WSW,254,8.0,9.0,-999,-99.99,,,-99.99,,2013-04-24 03:00:00,
2013-04-23 22:00:00,24.0,-99.9,-100.00,WNW,299,4.0,7.0,-999,-99.99,,,-99.99,,2013-04-24 04:00:00,
2013-04-23 22:33:00,24.0,-99.9,-100.00,WNW,299,4.0,7.0,-999,-99.99,,,-99.99,,2013-04-24 04:33:00,
2013-04-23 22:43:00,24.0,-99.9,-100.00,WNW,299,4.0,7.0,-999,-99.99,,,-99.99,,2013-04-24 04:43:00,
2013-04-23 22:53:00,24.0,-99.9,-100.00,WNW,299,4.0,7.0,-999,-99.99,,,-99.99,,2013-04-24 04:53:00,
2013-04-23 23:00:00,24.0,-99.9,-100.00,South,180,4.0,10.0,-999,-99.99,,,-99.99,,2013-04-24 05:00:00,
2013-04-23 23:33:00,24.0,-99.9,-100.00,South,180,4.0,10.0,-999,-99.99,,,-99.99,,2013-04-24 05:33:00,
2013-04-23 23:42:00,24.0,-99.9,-100.00,South,180,4.0,10.0,-999,-99.99,,,-99.99,,2013-04-24 05:42:00,
2013-04-23 23:52:00,24.0,-99.9,-100.00,South,180,4.0,10.0,-999,-99.99,,,-99.99,,2013-04-24 05:52:00,